createdAt,value
2019-01-04T00:03:17.067Z,311.97
2019-01-04T00:13:22.607Z,287.67
2019-01-04T00:23:30.525Z,276.63
2019-01-04T00:33:35.950Z,269.07
2019-01-04T00:43:43.009Z,253.87
2019-01-04T00:53:48.455Z,249.60
2019-01-04T01:04:51.743Z,244.03
2019-01-04T01:16:11.355Z,232.13
2019-01-04T01:27:17.290Z,220.37
2019-01-04T01:38:43.131Z,217.80
2019-01-04T01:49:53.417Z,208.53
2019-01-04T01:59:58.951Z,200.43
2019-01-04T02:10:04.884Z,190.37
2019-01-04T02:20:10.353Z,186.37
2019-01-04T02:30:15.743Z,182.47
2019-01-04T02:40:21.246Z,172.90
2019-01-04T02:50:26.608Z,168.83
2019-01-04T03:00:32.167Z,162.43
2019-01-04T03:10:37.584Z,157.27
2019-01-04T03:20:44.154Z,153.17
2019-01-04T03:30:54.235Z,151.97
2019-01-04T03:41:06.307Z,140.90
2019-01-04T03:51:11.800Z,139.60
2019-01-04T04:01:17.242Z,134.67
2019-01-04T04:11:23.018Z,130.60
2019-01-04T04:21:28.477Z,127.83
2019-01-04T04:31:35.003Z,123.80
2019-01-04T04:41:40.633Z,117.80
2019-01-04T04:51:46.156Z,118.90
2019-01-04T05:01:51.635Z,114.17
2019-01-04T05:11:57.274Z,110.03
2019-01-04T05:22:03.240Z,109.73
2019-01-04T05:32:08.729Z,104.30
2019-01-04T05:42:14.217Z,100.40
2019-01-04T05:52:19.695Z,99.40
2019-01-04T06:02:25.041Z,95.40
2019-01-04T06:12:32.431Z,91.17
2019-01-04T06:22:38.094Z,88.80
2019-01-04T06:32:43.878Z,84.47
2019-01-04T06:42:49.415Z,80.83
2019-01-04T06:52:54.777Z,79.73
2019-01-04T07:03:00.241Z,77.40
2019-01-04T07:13:05.811Z,74.93
2019-01-04T07:23:11.604Z,72.30
2019-01-04T07:33:17.023Z,70.50
2019-01-04T07:43:22.451Z,68.17
2019-01-04T07:53:27.940Z,65.50
2019-01-04T08:03:33.443Z,61.80
2019-01-04T08:13:38.993Z,61.60
2019-01-04T08:23:44.438Z,59.53
2019-01-04T08:33:51.327Z,57.33
2019-01-04T08:43:56.686Z,55.87
2019-01-04T08:54:10.087Z,53.00
2019-01-04T09:04:15.484Z,50.67
2019-01-04T09:14:21.023Z,44.87
2019-01-04T09:24:26.568Z,34.23
2019-01-04T09:34:31.981Z,31.93
2019-01-04T09:44:37.424Z,25.13
2019-01-04T09:54:42.853Z,28.53
2019-01-04T10:04:48.216Z,26.80
2019-01-04T10:14:53.744Z,23.03
2019-01-04T10:24:59.216Z,22.40
2019-01-04T10:35:10.322Z,20.80
2019-01-04T10:45:12.006Z,20.50
2019-01-04T10:55:17.480Z,13.60
2019-01-04T11:05:23.032Z,12.30
2019-01-04T11:15:29.007Z,10.90
2019-01-04T11:26:01.061Z,11.30
2019-01-04T11:36:37.891Z,10.60
2019-01-04T11:47:38.138Z,9.67
2019-01-04T11:57:44.484Z,9.50
2019-01-04T12:07:49.885Z,9.07
2019-01-04T12:17:55.576Z,8.97
2019-01-04T12:28:01.166Z,9.43
2019-01-04T12:38:06.617Z,9.20
2019-01-04T12:48:13.844Z,9.30
2019-01-04T12:58:19.511Z,8.23
2019-01-04T13:08:25.015Z,7.57
2019-01-04T13:18:30.409Z,7.50
2019-01-04T13:28:36.325Z,7.87
2019-01-04T13:38:42.128Z,7.07
2019-01-04T13:48:47.815Z,6.63
2019-01-04T13:58:54.540Z,6.60
2019-01-04T14:09:00.252Z,5.20
2019-01-04T14:19:06.146Z,5.20
2019-01-04T14:29:11.991Z,4.93
2019-01-04T14:39:19.042Z,4.50
2019-01-04T14:49:27.260Z,4.53
2019-01-04T14:59:33.122Z,5.07
2019-01-04T15:09:39.505Z,14.53
2019-01-04T15:19:45.613Z,71.87
2019-01-04T15:29:51.427Z,73.67
2019-01-04T15:40:00.467Z,72.93
2019-01-04T15:50:06.644Z,72.30
2019-01-04T16:00:13.601Z,69.57
2019-01-04T16:10:19.060Z,67.93
2019-01-04T16:20:27.875Z,71.83
2019-01-04T16:30:34.046Z,68.00
2019-01-04T16:40:39.666Z,64.27
2019-01-04T16:50:47.115Z,61.87
2019-01-04T17:00:53.616Z,59.20
2019-01-04T17:10:59.541Z,55.60
2019-01-04T17:21:05.949Z,52.87
2019-01-04T17:31:14.551Z,52.27
2019-01-04T17:41:20.661Z,49.67
2019-01-04T17:51:26.498Z,48.27
2019-01-04T18:01:32.006Z,37.67
2019-01-04T18:11:38.127Z,37.37
2019-01-04T18:21:44.558Z,36.60
2019-01-04T18:31:50.478Z,35.93
2019-01-04T18:41:57.084Z,34.57
2019-01-04T18:52:03.146Z,34.80
2019-01-04T19:02:08.682Z,33.17
2019-01-04T19:12:15.390Z,32.57
2019-01-04T19:22:21.918Z,30.47
2019-01-04T19:32:27.399Z,30.83
2019-01-04T19:42:33.011Z,28.87
2019-01-04T19:52:38.847Z,28.40
2019-01-04T20:02:44.601Z,28.23
2019-01-04T20:14:27.797Z,27.00
2019-01-04T20:24:50.720Z,25.00
2019-01-04T20:35:16.636Z,24.37
2019-01-04T20:45:53.213Z,24.33
2019-01-04T20:56:18.389Z,24.63
2019-01-04T21:07:01.374Z,19.23
2019-01-04T21:17:33.597Z,19.53
2019-01-04T21:28:13.118Z,18.07
2019-01-04T21:38:37.494Z,17.50
2019-01-04T21:49:11.201Z,17.20
2019-01-04T21:59:51.837Z,16.33
2019-01-04T22:10:31.461Z,17.40
2019-01-04T22:20:57.314Z,13.63
2019-01-04T22:31:28.040Z,13.43
2019-01-04T22:41:52.538Z,14.63
2019-01-04T22:52:18.524Z,79.00
2019-01-04T23:03:01.673Z,98.77
2019-01-04T23:13:30.418Z,82.23
2019-01-04T23:23:55.270Z,122.83
2019-01-04T23:34:18.606Z,127.63
2019-01-04T23:44:45.360Z,122.07
2019-01-04T23:55:08.597Z,113.73
